Time;durP1;ratioP1;P1;durP2;ratioP2;P2;SDS_P1;SDS_P2;PMS_P1;PMS_P2;Temp;Humidity;BMP_temperature;BMP_pressure;BME280_temperature;BME280_humidity;BME280_pressure;Samples;Min_cycle;Max_cycle;Signal;HPM_P1;HPM_P2
2022/09/26 00:00:42;;;;;;;12.50;10.10;;;13.50;99.90;;;;;;4990996;28;20448;-77
2022/09/26 00:03:08;;;;;;;12.77;9.87;;;13.60;99.90;;;;;;5001093;28;21240;-76
2022/09/26 00:05:35;;;;;;;12.33;9.90;;;13.60;99.90;;;;;;4997898;28;20478;-76
2022/09/26 00:08:01;;;;;;;17.90;10.50;;;13.60;99.90;;;;;;4998317;28;20443;-77
2022/09/26 00:10:26;;;;;;;15.23;10.90;;;13.60;99.90;;;;;;4991233;28;20827;-73
2022/09/26 00:12:54;;;;;;;11.27;9.50;;;13.60;99.90;;;;;;4995693;28;20193;-75
2022/09/26 00:15:20;;;;;;;11.23;9.07;;;13.60;99.90;;;;;;4994011;28;20170;-74
2022/09/26 00:17:45;;;;;;;11.43;10.33;;;13.60;99.90;;;;;;4993621;28;21005;-76
2022/09/26 00:20:11;;;;;;;11.87;9.17;;;13.60;99.90;;;;;;4996732;28;20182;-76
2022/09/26 00:22:36;;;;;;;12.07;9.23;;;13.50;99.90;;;;;;4996672;28;20242;-73
2022/09/26 00:25:02;;;;;;;20.13;10.57;;;13.40;99.90;;;;;;4989854;28;20200;-74
2022/09/26 00:27:28;;;;;;;11.20;9.67;;;13.40;99.90;;;;;;4997633;28;20196;-73
2022/09/26 00:29:54;;;;;;;12.37;9.20;;;13.40;99.90;;;;;;4999106;28;20444;-73
2022/09/26 00:32:19;;;;;;;13.63;10.67;;;13.40;99.90;;;;;;4994643;28;20213;-73
2022/09/26 00:34:45;;;;;;;11.60;9.47;;;13.40;99.90;;;;;;4994059;28;20197;-73
2022/09/26 00:37:10;;;;;;;13.13;9.83;;;13.40;99.90;;;;;;4989348;28;20400;-75
2022/09/26 00:39:36;;;;;;;11.87;10.37;;;13.30;99.90;;;;;;4992182;28;20189;-75
2022/09/26 00:42:02;;;;;;;11.43;8.30;;;13.40;99.90;;;;;;4999892;28;20204;-77
2022/09/26 00:44:53;;;;;;;11.23;10.07;;;13.40;99.90;;;;;;4997466;28;20193;-75
2022/09/26 00:47:34;;;;;;;14.30;9.63;;;13.50;99.90;;;;;;4993975;28;20268;-76
2022/09/26 00:50:06;;;;;;;10.47;9.10;;;13.50;99.90;;;;;;5015843;28;20930;-74
2022/09/26 00:52:44;;;;;;;11.70;10.20;;;13.50;99.90;;;;;;4995480;28;20486;-76
2022/09/26 00:55:13;;;;;;;10.43;9.20;;;13.50;99.90;;;;;;4994543;28;20464;-76
2022/09/26 00:57:46;;;;;;;9.63;8.67;;;13.40;99.90;;;;;;4993910;28;20485;-76
2022/09/26 01:00:13;;;;;;;9.57;8.57;;;13.40;99.90;;;;;;4996207;28;20432;-74
2022/09/26 01:02:41;;;;;;;11.03;9.40;;;13.40;99.90;;;;;;4995374;28;20986;-75
2022/09/26 01:05:11;;;;;;;13.90;9.20;;;13.20;99.90;;;;;;4999814;28;20463;-74
2022/09/26 01:07:37;;;;;;;9.63;8.20;;;13.30;99.90;;;;;;4994368;28;20966;-75
2022/09/26 01:10:04;;;;;;;8.60;7.70;;;13.30;99.90;;;;;;4995606;28;20461;-76
2022/09/26 01:12:30;;;;;;;11.07;8.07;;;13.20;99.90;;;;;;4995996;28;20233;-75
2022/09/26 01:14:57;;;;;;;11.10;8.50;;;13.20;99.90;;;;;;4995320;28;20439;-75
2022/09/26 01:17:23;;;;;;;11.80;9.00;;;13.20;99.90;;;;;;4997127;28;20439;-74
2022/09/26 01:20:08;;;;;;;8.70;7.80;;;13.20;99.90;;;;;;4991880;28;20443;-75
2022/09/26 01:23:04;;;;;;;12.83;8.80;;;13.20;99.90;;;;;;4997512;28;20460;-77
2022/09/26 01:26:20;;;;;;;10.33;7.80;;;13.20;99.90;;;;;;4994882;28;20429;-77
2022/09/26 01:28:55;;;;;;;9.37;8.33;;;13.10;99.90;;;;;;4994237;28;20935;-77
2022/09/26 01:31:38;;;;;;;9.83;8.83;;;13.10;99.90;;;;;;4997508;28;21010;-77
2022/09/26 01:34:19;;;;;;;10.43;9.40;;;13.10;99.90;;;;;;4991396;28;21076;-77
2022/09/26 01:37:00;;;;;;;9.50;8.60;;;13.10;99.90;;;;;;4995451;28;20416;-77
2022/09/26 01:39:50;;;;;;;9.90;8.90;;;13.10;99.90;;;;;;4991184;28;20471;-76
2022/09/26 01:42:25;;;;;;;9.73;8.73;;;13.10;99.90;;;;;;5002424;28;20439;-77
2022/09/26 01:45:06;;;;;;;10.60;9.10;;;13.20;99.90;;;;;;4997480;28;20412;-77
2022/09/26 01:47:56;;;;;;;10.60;8.83;;;13.20;99.90;;;;;;4996130;28;20559;-75
2022/09/26 01:50:40;;;;;;;9.93;8.00;;;13.10;99.90;;;;;;4997531;28;21379;-75
2022/09/26 01:53:11;;;;;;;9.70;8.70;;;13.10;99.90;;;;;;4999032;28;20467;-76
2022/09/26 01:55:47;;;;;;;9.70;7.93;;;13.10;99.90;;;;;;4988936;28;21020;-77
2022/09/26 01:58:38;;;;;;;14.60;9.17;;;13.10;99.90;;;;;;4997956;28;20524;-75
2022/09/26 02:01:09;;;;;;;9.33;8.30;;;13.10;99.90;;;;;;4991039;28;20852;-75
2022/09/26 02:03:39;;;;;;;11.57;9.80;;;13.10;99.90;;;;;;5001657;28;20947;-75
2022/09/26 02:06:10;;;;;;;12.93;9.87;;;13.10;99.90;;;;;;4999654;28;20514;-75
2022/09/26 02:08:58;;;;;;;11.10;9.40;;;13.10;99.90;;;;;;4999597;28;20495;-75
2022/09/26 02:11:24;;;;;;;12.07;10.03;;;12.90;99.90;;;;;;4996791;28;20474;-75
2022/09/26 02:14:04;;;;;;;10.50;9.20;;;12.90;99.90;;;;;;4997949;28;21187;-75
2022/09/26 02:16:30;;;;;;;15.03;9.13;;;12.90;99.90;;;;;;4991180;28;20464;-77
2022/09/26 02:19:04;;;;;;;13.47;9.63;;;12.90;99.90;;;;;;4999811;28;20445;-75
2022/09/26 02:21:33;;;;;;;13.40;9.73;;;12.90;99.90;;;;;;4997284;28;20209;-75
2022/09/26 02:23:58;;;;;;;12.70;10.37;;;12.90;99.90;;;;;;4997048;28;20479;-77
2022/09/26 02:26:24;;;;;;;11.93;9.30;;;13.00;99.90;;;;;;4999114;28;20440;-77
2022/09/26 02:28:50;;;;;;;10.00;9.00;;;13.00;99.90;;;;;;4997988;28;20181;-76
2022/09/26 02:31:21;;;;;;;14.40;10.50;;;13.10;99.90;;;;;;4999547;28;20214;-74
2022/09/26 02:33:51;;;;;;;15.73;9.83;;;13.00;99.90;;;;;;4994474;28;20186;-77
2022/09/26 02:36:18;;;;;;;12.77;8.97;;;13.10;99.90;;;;;;4998101;28;20887;-73
2022/09/26 02:38:44;;;;;;;10.70;9.07;;;13.00;99.90;;;;;;4997544;28;20930;-74
2022/09/26 02:41:21;;;;;;;10.87;8.30;;;13.10;99.90;;;;;;4991896;28;20488;-73
2022/09/26 02:44:18;;;;;;;11.27;8.47;;;13.10;99.90;;;;;;4998007;28;20566;-74
2022/09/26 02:47:23;;;;;;;11.37;8.37;;;13.10;99.90;;;;;;4992072;28;20428;-74
2022/09/26 02:50:00;;;;;;;10.50;8.23;;;13.10;99.90;;;;;;4990962;28;20435;-75
2022/09/26 02:52:55;;;;;;;11.47;7.67;;;13.10;99.90;;;;;;4998337;28;20494;-76
2022/09/26 02:55:25;;;;;;;11.03;8.70;;;13.10;99.90;;;;;;4990847;28;20440;-74
2022/09/26 02:58:10;;;;;;;12.43;9.90;;;13.00;99.90;;;;;;4997722;28;20419;-75
2022/09/26 03:00:49;;;;;;;10.50;9.07;;;13.00;99.90;;;;;;4989008;28;20849;-75
2022/09/26 03:03:37;;;;;;;10.33;9.00;;;13.10;99.90;;;;;;4988371;28;20484;-76
2022/09/26 03:06:06;;;;;;;14.07;9.80;;;12.90;99.90;;;;;;4992653;28;20432;-77
2022/09/26 03:08:37;;;;;;;12.00;9.77;;;13.00;99.90;;;;;;4990615;28;20413;-75
2022/09/26 03:11:05;;;;;;;12.97;10.50;;;13.00;99.90;;;;;;4994204;28;20471;-76
2022/09/26 03:13:36;;;;;;;12.90;10.43;;;13.00;99.90;;;;;;5004428;28;20523;-76
2022/09/26 03:16:02;;;;;;;14.37;10.47;;;13.00;99.90;;;;;;4994392;28;20440;-74
2022/09/26 03:18:39;;;;;;;13.57;10.67;;;13.00;99.90;;;;;;4995998;28;20426;-75
2022/09/26 03:21:04;;;;;;;13.73;10.07;;;13.00;99.90;;;;;;5001291;28;20444;-76
2022/09/26 03:23:30;;;;;;;13.10;9.30;;;13.00;99.90;;;;;;4995515;28;20447;-75
2022/09/26 03:26:01;;;;;;;11.80;10.20;;;12.90;99.90;;;;;;4992205;28;20185;-76
2022/09/26 03:28:27;;;;;;;11.83;9.70;;;12.90;99.90;;;;;;5003665;28;20212;-75
2022/09/26 03:30:53;;;;;;;12.00;9.50;;;12.80;99.90;;;;;;4998595;28;20567;-77
2022/09/26 03:33:19;;;;;;;11.17;9.97;;;12.80;99.90;;;;;;4998887;28;20605;-75
2022/09/26 03:35:44;;;;;;;11.30;9.03;;;12.80;99.90;;;;;;4997274;28;20683;-75
2022/09/26 03:38:10;;;;;;;11.47;9.00;;;12.90;99.90;;;;;;4998471;28;20789;-77
2022/09/26 03:40:36;;;;;;;11.30;8.60;;;12.80;99.90;;;;;;4999227;28;20197;-76
2022/09/26 03:43:01;;;;;;;12.10;10.23;;;12.80;99.90;;;;;;5003936;28;20284;-75
2022/09/26 03:45:27;;;;;;;12.80;8.70;;;12.80;99.90;;;;;;4993234;28;20193;-75
2022/09/26 03:47:56;;;;;;;10.47;9.13;;;12.80;99.90;;;;;;4995943;28;20181;-77
2022/09/26 03:50:22;;;;;;;14.80;9.00;;;12.90;99.90;;;;;;4997053;28;20209;-76
2022/09/26 03:52:48;;;;;;;12.90;9.40;;;12.90;99.90;;;;;;5001366;28;20467;-77
2022/09/26 03:55:14;;;;;;;12.90;8.67;;;12.80;99.90;;;;;;4996249;28;20441;-77
2022/09/26 03:57:39;;;;;;;9.50;7.80;;;12.80;99.90;;;;;;5000625;28;20180;-76
2022/09/26 04:00:06;;;;;;;9.57;8.53;;;12.70;99.90;;;;;;4995292;28;21015;-75
2022/09/26 04:02:32;;;;;;;8.30;7.27;;;12.70;99.90;;;;;;5002362;28;20236;-75
2022/09/26 04:04:58;;;;;;;11.23;8.93;;;12.60;99.90;;;;;;4995224;28;20943;-75
2022/09/26 04:07:23;;;;;;;8.90;8.00;;;12.70;99.90;;;;;;4999224;28;20187;-75
2022/09/26 04:09:49;;;;;;;10.00;8.13;;;12.70;99.90;;;;;;4994768;28;20185;-75
2022/09/26 04:12:14;;;;;;;8.73;7.63;;;12.70;99.90;;;;;;4994896;28;20220;-76
2022/09/26 04:14:42;;;;;;;17.60;7.90;;;12.70;99.90;;;;;;4994374;28;20252;-76
2022/09/26 04:17:08;;;;;;;8.57;7.67;;;12.60;99.90;;;;;;4994962;28;20177;-76
2022/09/26 04:19:34;;;;;;;8.77;7.60;;;12.70;99.90;;;;;;5005339;28;20420;-74
2022/09/26 04:21:59;;;;;;;8.80;6.83;;;12.70;99.90;;;;;;4995807;28;20483;-76
2022/09/26 04:24:25;;;;;;;8.63;7.13;;;12.60;99.90;;;;;;5004330;28;20192;-78
2022/09/26 04:26:51;;;;;;;10.50;7.53;;;12.60;99.90;;;;;;4993246;28;20669;-75
2022/09/26 04:29:19;;;;;;;10.63;8.20;;;12.60;99.90;;;;;;4997509;28;20559;-75
2022/09/26 04:31:45;;;;;;;10.40;7.57;;;12.60;99.90;;;;;;4995257;28;20241;-75
2022/09/26 04:34:11;;;;;;;8.07;7.07;;;12.60;99.90;;;;;;4996101;28;20538;-76
2022/09/26 04:36:37;;;;;;;8.13;6.80;;;12.50;99.90;;;;;;4996212;28;20206;-76
2022/09/26 04:39:03;;;;;;;7.90;6.23;;;12.50;99.90;;;;;;4991651;28;20492;-76
2022/09/26 04:41:30;;;;;;;8.33;7.20;;;12.60;99.90;;;;;;4995182;28;20812;-74
2022/09/26 04:43:57;;;;;;;11.73;9.20;;;12.50;99.90;;;;;;4998623;28;20423;-75
2022/09/26 04:46:26;;;;;;;8.73;6.70;;;12.60;99.90;;;;;;4994691;28;20507;-76
2022/09/26 04:48:53;;;;;;;7.70;6.90;;;12.60;99.90;;;;;;4997515;28;20444;-75
2022/09/26 04:51:21;;;;;;;11.73;7.60;;;12.50;99.90;;;;;;4997144;28;20467;-75
2022/09/26 04:53:47;;;;;;;15.33;7.70;;;12.50;99.90;;;;;;4994738;28;20767;-75
2022/09/26 04:56:14;;;;;;;8.50;7.27;;;12.50;99.90;;;;;;4996839;28;20433;-76
2022/09/26 04:58:41;;;;;;;8.80;6.63;;;12.50;99.90;;;;;;5001565;28;20717;-75
2022/09/26 05:01:09;;;;;;;12.80;8.13;;;12.50;99.90;;;;;;4993323;28;20448;-76
2022/09/26 05:03:36;;;;;;;8.77;7.00;;;12.40;99.90;;;;;;4994466;28;20428;-74
2022/09/26 05:06:04;;;;;;;14.43;7.93;;;12.40;99.90;;;;;;4997412;28;20428;-75
2022/09/26 05:08:30;;;;;;;13.33;7.93;;;12.40;99.90;;;;;;4994375;28;20421;-74
2022/09/26 05:10:57;;;;;;;12.30;8.53;;;12.50;99.90;;;;;;4994347;28;20465;-74
2022/09/26 05:13:23;;;;;;;14.07;9.33;;;12.50;99.90;;;;;;4996715;28;20205;-76
2022/09/26 05:15:53;;;;;;;14.53;8.77;;;12.50;99.90;;;;;;4993407;28;20436;-72
2022/09/26 05:18:19;;;;;;;15.63;8.30;;;12.40;99.90;;;;;;4983539;28;20515;-72
2022/09/26 05:20:47;;;;;;;13.27;7.50;;;12.30;99.90;;;;;;4993005;28;20525;-72
2022/09/26 05:23:13;;;;;;;14.43;6.67;;;12.40;99.90;;;;;;4987740;28;20985;-70
2022/09/26 05:28:25;;;;;;;8.90;6.67;;;12.30;99.90;;;;;;4983109;28;20424;-72
2022/09/26 05:30:51;;;;;;;10.13;6.13;;;12.20;99.90;;;;;;4995425;28;20468;-72
2022/09/26 05:33:21;;;;;;;6.40;5.80;;;12.20;99.90;;;;;;4991784;28;20448;-73
2022/09/26 05:35:52;;;;;;;7.80;5.63;;;12.20;99.90;;;;;;4996323;28;20772;-73
2022/09/26 05:38:18;;;;;;;11.50;6.70;;;12.20;99.90;;;;;;4989409;28;20511;-74
2022/09/26 05:40:55;;;;;;;8.73;5.83;;;12.30;99.90;;;;;;4994124;28;20535;-72
2022/09/26 05:43:22;;;;;;;9.00;5.73;;;12.20;99.90;;;;;;4990426;28;20414;-73
2022/09/26 05:45:49;;;;;;;8.77;6.33;;;12.30;99.90;;;;;;4989201;28;20550;-75
2022/09/26 05:48:16;;;;;;;8.77;6.03;;;12.30;99.90;;;;;;4996185;28;20866;-76
2022/09/26 05:50:42;;;;;;;6.93;5.50;;;12.30;99.90;;;;;;4995935;28;20471;-77
2022/09/26 05:53:09;;;;;;;12.20;5.83;;;12.30;99.90;;;;;;4993036;28;20440;-76
2022/09/26 05:55:36;;;;;;;7.40;5.93;;;12.30;99.90;;;;;;4998819;28;20436;-76
2022/09/26 05:58:04;;;;;;;8.77;6.40;;;12.20;99.90;;;;;;4993313;28;20504;-76
2022/09/26 06:00:30;;;;;;;7.20;5.60;;;12.30;99.90;;;;;;4990985;28;20517;-73
2022/09/26 06:02:57;;;;;;;9.57;6.37;;;12.20;99.90;;;;;;4995628;28;20483;-75
2022/09/26 06:05:24;;;;;;;8.83;6.70;;;12.20;99.90;;;;;;4995146;28;20583;-76
2022/09/26 06:07:51;;;;;;;11.10;7.80;;;12.20;99.90;;;;;;4996816;28;20875;-75
2022/09/26 06:10:18;;;;;;;10.03;6.43;;;12.10;99.90;;;;;;4993243;28;20482;-74
2022/09/26 06:12:43;;;;;;;7.90;7.10;;;12.20;99.90;;;;;;4996939;28;20457;-75
2022/09/26 06:15:09;;;;;;;9.20;6.80;;;12.10;99.90;;;;;;4989793;28;20444;-73
2022/09/26 06:17:35;;;;;;;7.73;6.17;;;12.20;99.90;;;;;;4988574;28;20264;-74
2022/09/26 06:20:01;;;;;;;8.83;6.80;;;12.30;99.90;;;;;;4993046;28;20208;-74
2022/09/26 06:22:27;;;;;;;9.50;6.50;;;12.20;99.90;;;;;;4988482;28;20483;-74
2022/09/26 06:24:53;;;;;;;7.20;6.27;;;12.20;99.90;;;;;;4993412;28;20424;-72
2022/09/26 06:27:19;;;;;;;10.73;6.30;;;12.30;99.90;;;;;;4988989;28;20829;-73
2022/09/26 06:29:45;;;;;;;8.63;6.70;;;12.30;99.90;;;;;;4990023;28;20190;-72
2022/09/26 06:32:10;;;;;;;9.37;6.57;;;12.30;99.90;;;;;;4987330;28;20487;-73
2022/09/26 06:34:36;;;;;;;9.90;5.80;;;12.30;99.90;;;;;;4990637;28;20559;-75
2022/09/26 06:37:02;;;;;;;12.33;5.80;;;12.40;99.90;;;;;;4992236;28;20185;-72
2022/09/26 06:39:34;;;;;;;11.63;6.17;;;12.30;99.90;;;;;;4990811;28;20182;-76
2022/09/26 06:42:01;;;;;;;6.63;5.70;;;12.30;99.90;;;;;;4991694;28;20208;-76
2022/09/26 06:44:27;;;;;;;5.97;4.70;;;12.40;99.90;;;;;;4988264;28;20811;-77
2022/09/26 06:46:52;;;;;;;8.67;6.47;;;12.50;99.90;;;;;;4997996;28;20446;-73
2022/09/26 06:49:18;;;;;;;8.70;5.63;;;12.50;99.90;;;;;;4993693;28;20899;-74
2022/09/26 06:51:47;;;;;;;7.40;5.50;;;12.50;99.90;;;;;;4990241;28;20221;-74
2022/09/26 06:54:13;;;;;;;6.27;4.97;;;12.50;99.90;;;;;;4994619;28;20212;-74
2022/09/26 06:56:39;;;;;;;7.77;5.60;;;12.60;99.90;;;;;;4996349;28;20481;-73
2022/09/26 06:59:04;;;;;;;7.97;6.57;;;12.60;99.90;;;;;;4998194;28;20714;-72
2022/09/26 07:01:30;;;;;;;8.63;5.73;;;12.60;99.90;;;;;;4997496;28;20247;-72
2022/09/26 07:03:55;;;;;;;5.90;5.20;;;12.60;99.90;;;;;;4999299;28;20185;-71
2022/09/26 07:06:21;;;;;;;5.63;5.03;;;12.70;99.90;;;;;;4997137;28;20181;-72
2022/09/26 07:08:47;;;;;;;5.13;4.63;;;12.70;99.90;;;;;;4997675;28;20668;-73
2022/09/26 07:11:12;;;;;;;7.00;4.30;;;12.80;99.90;;;;;;4993157;28;20621;-72
2022/09/26 07:13:38;;;;;;;4.50;4.10;;;12.80;99.90;;;;;;5001148;28;20181;-73
2022/09/26 07:16:04;;;;;;;8.80;3.70;;;12.80;99.90;;;;;;4994636;28;20203;-72
2022/09/26 07:18:30;;;;;;;5.77;3.80;;;12.80;99.90;;;;;;4992694;28;20923;-70
2022/09/26 07:20:55;;;;;;;6.30;3.93;;;12.90;99.90;;;;;;4999123;28;21093;-70
2022/09/26 07:23:21;;;;;;;4.33;3.93;;;12.90;99.90;;;;;;4995563;28;20971;-72
2022/09/26 07:25:47;;;;;;;4.77;3.83;;;12.90;99.90;;;;;;4991864;28;20185;-72
2022/09/26 07:28:12;;;;;;;4.17;3.70;;;12.90;99.90;;;;;;4995780;28;20192;-73
2022/09/26 07:30:38;;;;;;;5.67;3.97;;;13.00;99.90;;;;;;4997220;28;20197;-73
2022/09/26 07:33:04;;;;;;;5.57;4.50;;;13.00;99.90;;;;;;4995353;28;20206;-73
2022/09/26 07:35:32;;;;;;;4.93;4.40;;;12.90;99.90;;;;;;4999493;28;20559;-73
2022/09/26 07:37:58;;;;;;;5.60;3.47;;;13.00;99.90;;;;;;4994671;28;20457;-73
2022/09/26 07:40:24;;;;;;;5.10;4.30;;;13.00;99.90;;;;;;4998759;28;20436;-73
2022/09/26 07:42:51;;;;;;;4.63;3.93;;;13.10;99.90;;;;;;4990495;28;20456;-72
2022/09/26 07:50:09;;;;;;;7.40;4.00;;;13.10;99.90;;;;;;4989955;28;20475;-73
2022/09/26 07:50:52;;;;;;;6.00;4.07;;;13.10;99.90;;;;;;4992482;28;20469;-73
2022/09/26 07:53:18;;;;;;;8.60;4.53;;;13.20;99.90;;;;;;4995227;28;20449;-74
2022/09/26 07:56:04;;;;;;;5.30;4.13;;;13.30;99.90;;;;;;4997280;28;20944;-73
2022/09/26 07:58:30;;;;;;;5.20;4.37;;;13.30;99.90;;;;;;4991352;28;20250;-74
2022/09/26 08:00:55;;;;;;;8.37;4.03;;;13.30;99.90;;;;;;4989685;28;20948;-73
2022/09/26 08:03:22;;;;;;;9.17;4.80;;;13.30;99.90;;;;;;4994999;28;20467;-75
2022/09/26 08:05:57;;;;;;;5.27;4.10;;;13.30;99.90;;;;;;4995068;28;20192;-74
2022/09/26 08:08:23;;;;;;;5.07;3.70;;;13.50;99.90;;;;;;4993860;28;20431;-74
2022/09/26 08:10:48;;;;;;;8.17;4.83;;;13.50;99.90;;;;;;4992334;28;20546;-73
2022/09/26 08:13:14;;;;;;;6.27;4.47;;;13.50;99.90;;;;;;4994592;28;21023;-72
2022/09/26 08:15:40;;;;;;;8.70;4.87;;;13.60;99.90;;;;;;4996014;28;20818;-72
2022/09/26 08:18:05;;;;;;;5.43;4.10;;;13.70;99.90;;;;;;4992517;28;20186;-72
2022/09/26 08:20:32;;;;;;;5.97;4.33;;;13.70;99.90;;;;;;4997698;28;20193;-73
2022/09/26 08:22:59;;;;;;;5.40;4.77;;;13.70;99.90;;;;;;4991907;28;20576;-73
2022/09/26 08:25:24;;;;;;;5.77;4.23;;;13.90;99.90;;;;;;4989804;28;20519;-74
2022/09/26 08:27:52;;;;;;;7.20;5.00;;;13.90;99.90;;;;;;4992459;28;20873;-72
2022/09/26 08:30:17;;;;;;;6.70;4.90;;;14.00;99.90;;;;;;4998887;28;20181;-73
2022/09/26 08:32:51;;;;;;;6.57;4.70;;;14.10;99.90;;;;;;4989741;28;20848;-73
2022/09/26 08:35:17;;;;;;;5.60;4.80;;;14.10;99.90;;;;;;4996208;28;20989;-72
2022/09/26 08:37:43;;;;;;;4.83;4.20;;;14.20;99.90;;;;;;4997173;28;20495;-72
2022/09/26 08:40:09;;;;;;;6.73;4.83;;;14.20;99.90;;;;;;4991352;28;20787;-73
2022/09/26 08:42:56;;;;;;;5.83;4.03;;;14.20;99.90;;;;;;4993366;28;20263;-72
2022/09/26 08:48:43;;;;;;;6.70;4.13;;;14.30;99.90;;;;;;4995420;28;20471;-72
2022/09/26 08:51:15;;;;;;;5.90;4.60;;;14.40;99.90;;;;;;4985067;28;20895;-73
2022/09/26 08:54:14;;;;;;;5.33;4.30;;;14.40;99.90;;;;;;4989996;28;20440;-73
2022/09/26 08:56:54;;;;;;;12.93;4.87;;;14.40;99.90;;;;;;4983738;28;20524;-73
2022/09/26 08:59:23;;;;;;;8.60;4.20;;;14.50;99.90;;;;;;4991414;28;20437;-73
2022/09/26 09:01:51;;;;;;;9.63;4.77;;;14.60;99.90;;;;;;4992267;28;20919;-73
2022/09/26 09:04:37;;;;;;;6.10;4.53;;;14.70;99.90;;;;;;4985644;28;20480;-73
2022/09/26 09:07:23;;;;;;;7.53;4.63;;;14.90;99.90;;;;;;4992588;28;20491;-73
2022/09/26 09:10:05;;;;;;;8.47;4.23;;;15.10;99.90;;;;;;4993087;28;20486;-75
2022/09/26 09:12:52;;;;;;;4.77;3.40;;;15.10;99.90;;;;;;5004161;28;20464;-73
2022/09/26 09:15:36;;;;;;;7.90;3.60;;;15.10;99.90;;;;;;4996441;28;21168;-73
2022/09/26 09:18:23;;;;;;;4.03;3.47;;;15.20;99.90;;;;;;4995022;28;20428;-73
2022/09/26 09:21:08;;;;;;;5.80;4.00;;;15.20;99.90;;;;;;4987362;28;20409;-72
2022/09/26 09:24:17;;;;;;;9.20;5.63;;;15.20;99.90;;;;;;4991441;28;20499;-73
2022/09/26 09:26:51;;;;;;;5.10;3.47;;;15.20;99.90;;;;;;4997357;28;20517;-73
2022/09/26 09:29:43;;;;;;;3.70;3.30;;;15.20;99.90;;;;;;4996221;28;20898;-72
2022/09/26 09:32:13;;;;;;;4.63;3.60;;;15.40;99.90;;;;;;4992842;28;20479;-73
2022/09/26 09:34:41;;;;;;;6.97;4.40;;;15.50;99.90;;;;;;4988780;28;20902;-73
2022/09/26 09:37:30;;;;;;;4.87;3.47;;;15.60;99.90;;;;;;4992664;28;20424;-73
2022/09/26 09:39:56;;;;;;;6.07;3.77;;;15.60;99.90;;;;;;4995059;28;20432;-73
2022/09/26 09:42:39;;;;;;;4.77;3.40;;;15.80;99.90;;;;;;4993266;28;20487;-73
2022/09/26 09:45:11;;;;;;;5.80;3.77;;;16.00;99.90;;;;;;4992807;28;20187;-73
2022/09/26 09:47:38;;;;;;;5.80;3.77;;;16.00;99.90;;;;;;4998131;28;20952;-74
2022/09/26 09:50:19;;;;;;;3.70;2.80;;;16.10;99.90;;;;;;4990534;28;20423;-73
2022/09/26 09:53:07;;;;;;;5.07;3.13;;;16.10;99.90;;;;;;4993255;28;20444;-72
2022/09/26 09:55:46;;;;;;;4.63;3.20;;;16.10;99.90;;;;;;4989838;28;20433;-73
2022/09/26 09:58:30;;;;;;;4.23;2.80;;;16.00;99.90;;;;;;4994091;28;21128;-73
2022/09/26 10:01:17;;;;;;;8.50;3.83;;;16.00;99.90;;;;;;4995367;28;20443;-73
2022/09/26 10:04:22;;;;;;;4.27;2.80;;;16.10;99.90;;;;;;4994469;28;20455;-74
2022/09/26 10:06:49;;;;;;;4.30;2.80;;;16.10;99.90;;;;;;4991656;28;20514;-72
2022/09/26 10:09:24;;;;;;;4.60;2.80;;;16.30;99.90;;;;;;4987004;28;20444;-72
2022/09/26 10:11:52;;;;;;;4.87;3.33;;;16.50;99.90;;;;;;4987664;28;20696;-74
2022/09/26 10:14:34;;;;;;;7.83;3.33;;;16.60;99.90;;;;;;4995597;28;20440;-72
2022/09/26 10:17:09;;;;;;;7.43;3.30;;;16.70;99.90;;;;;;4991948;28;20426;-73
2022/09/26 10:19:43;;;;;;;5.90;3.03;;;16.70;99.90;;;;;;4995096;28;20424;-73
2022/09/26 10:22:17;;;;;;;4.67;3.27;;;16.60;99.90;;;;;;4993528;28;20978;-73
2022/09/26 10:24:46;;;;;;;5.50;3.40;;;16.50;99.90;;;;;;4990744;28;20808;-73
2022/09/26 10:27:34;;;;;;;5.33;3.27;;;16.40;99.90;;;;;;4991773;28;20863;-73
2022/09/26 10:30:02;;;;;;;6.47;3.07;;;16.30;99.90;;;;;;4990905;28;20998;-74
2022/09/26 10:32:29;;;;;;;9.13;3.43;;;16.00;99.90;;;;;;4992900;28;20507;-74
2022/09/26 10:35:24;;;;;;;7.10;3.07;;;15.90;99.90;;;;;;4995103;28;21357;-75
2022/09/26 10:38:01;;;;;;;6.90;3.03;;;15.70;99.90;;;;;;4991980;28;20440;-74
2022/09/26 10:40:44;;;;;;;5.30;2.90;;;15.70;99.90;;;;;;4988921;28;20440;-74
2022/09/26 10:43:23;;;;;;;4.37;3.17;;;15.90;99.90;;;;;;4999788;28;20498;-75
2022/09/26 10:45:58;;;;;;;7.27;3.43;;;15.90;99.90;;;;;;4989740;28;20877;-73
2022/09/26 10:48:37;;;;;;;4.93;3.50;;;15.90;99.90;;;;;;4990763;28;20431;-73
2022/09/26 10:51:04;;;;;;;4.03;3.40;;;15.90;99.90;;;;;;4990786;28;20457;-72
2022/09/26 10:53:35;;;;;;;7.80;3.63;;;16.00;99.90;;;;;;4988778;28;20472;-73
2022/09/26 10:56:10;;;;;;;4.63;3.70;;;16.00;99.90;;;;;;4993477;28;20520;-73
2022/09/26 10:58:43;;;;;;;11.90;4.27;;;16.20;99.90;;;;;;4992830;28;20431;-73
2022/09/26 11:01:21;;;;;;;8.40;3.70;;;16.20;99.90;;;;;;4995917;28;20432;-73
2022/09/26 11:03:49;;;;;;;5.20;3.47;;;16.20;99.90;;;;;;4992248;28;20447;-73
2022/09/26 11:06:32;;;;;;;4.83;3.97;;;16.20;99.90;;;;;;4983369;28;20431;-73
2022/09/26 11:09:01;;;;;;;5.23;4.37;;;16.20;99.90;;;;;;4991938;28;20451;-74
2022/09/26 11:11:34;;;;;;;8.47;3.47;;;16.00;99.90;;;;;;4995314;28;20856;-73
2022/09/26 11:14:07;;;;;;;4.63;3.50;;;16.10;99.90;;;;;;4995537;28;20428;-76
2022/09/26 11:16:52;;;;;;;4.50;3.60;;;16.20;99.90;;;;;;4997681;28;20474;-72
2022/09/26 11:19:27;;;;;;;5.97;4.33;;;16.20;99.90;;;;;;4995468;28;20449;-74
2022/09/26 11:22:10;;;;;;;5.37;3.37;;;16.20;99.90;;;;;;4990673;28;20482;-72
2022/09/26 11:24:46;;;;;;;4.50;3.30;;;16.30;99.90;;;;;;4991548;28;20448;-72
2022/09/26 11:27:33;;;;;;;5.17;3.80;;;16.20;99.90;;;;;;4987978;28;20520;-73
2022/09/26 11:30:11;;;;;;;3.67;3.37;;;16.10;99.90;;;;;;4991440;28;20441;-74
2022/09/26 11:32:41;;;;;;;5.40;3.70;;;15.90;99.90;;;;;;4994293;28;20610;-73
2022/09/26 11:35:25;;;;;;;6.50;2.77;;;15.70;99.90;;;;;;4992976;28;20435;-74
2022/09/26 11:38:05;;;;;;;3.57;2.47;;;15.10;99.90;;;;;;4995871;28;20453;-74
2022/09/26 11:40:41;;;;;;;4.07;2.53;;;14.60;99.90;;;;;;4995336;28;20452;-73
2022/09/26 11:43:12;;;;;;;4.00;2.57;;;14.30;99.90;;;;;;4991554;28;20456;-74
2022/09/26 11:46:09;;;;;;;2.97;2.50;;;14.20;99.90;;;;;;4993509;28;20554;-73
2022/09/26 11:49:09;;;;;;;3.83;2.13;;;14.10;99.90;;;;;;4994836;28;20424;-73
2022/09/26 11:51:39;;;;;;;2.80;2.40;;;14.00;99.90;;;;;;4993946;28;20613;-72
2022/09/26 11:54:22;;;;;;;2.07;1.83;;;13.70;99.90;;;;;;4992563;28;20441;-72
2022/09/26 11:57:26;;;;;;;6.17;2.80;;;13.40;99.90;;;;;;4998280;28;20428;-72
2022/09/26 12:00:14;;;;;;;6.03;2.30;;;13.40;99.90;;;;;;5007538;28;20437;-73
2022/09/26 12:02:54;;;;;;;3.77;2.40;;;13.40;99.90;;;;;;4993682;28;20821;-73
2022/09/26 12:05:29;;;;;;;3.33;2.23;;;13.50;99.90;;;;;;5001193;28;20426;-73
2022/09/26 12:08:13;;;;;;;2.67;2.20;;;13.70;99.90;;;;;;5002062;28;20488;-73
2022/09/26 12:11:00;;;;;;;4.30;2.30;;;13.80;99.90;;;;;;4990496;28;20497;-73
2022/09/26 12:13:51;;;;;;;3.43;2.47;;;13.80;99.90;;;;;;4995217;28;20468;-73
2022/09/26 12:16:27;;;;;;;3.60;2.37;;;14.00;99.90;;;;;;4996843;28;20467;-73
2022/09/26 12:19:25;;;;;;;3.63;2.60;;;14.10;99.90;;;;;;4994467;28;20437;-73
2022/09/26 12:24:56;;;;;;;5.70;2.90;;;14.10;99.90;;;;;;4997340;28;20435;-72
2022/09/26 12:27:41;;;;;;;4.30;2.40;;;14.00;99.90;;;;;;4998268;28;20530;-72
2022/09/26 12:30:20;;;;;;;6.17;2.90;;;13.90;99.90;;;;;;4995762;28;20893;-73
2022/09/26 12:33:08;;;;;;;3.57;2.37;;;13.60;99.90;;;;;;4998476;28;20809;-73
2022/09/26 12:35:45;;;;;;;2.77;2.07;;;13.50;99.90;;;;;;4997343;28;20492;-73
2022/09/26 12:38:43;;;;;;;4.10;3.20;;;13.50;99.90;;;;;;4994591;28;20514;-73
2022/09/26 12:41:27;;;;;;;4.23;2.33;;;13.60;99.90;;;;;;4957242;28;20415;-73
2022/09/26 12:44:01;;;;;;;4.40;2.87;;;13.50;99.90;;;;;;4993833;28;20922;-73
2022/09/26 12:46:46;;;;;;;4.57;2.80;;;13.60;99.90;;;;;;4994262;28;20859;-73
2022/09/26 12:49:33;;;;;;;5.97;3.30;;;13.60;99.90;;;;;;5000116;28;20435;-74
2022/09/26 12:52:04;;;;;;;7.33;4.60;;;13.80;99.90;;;;;;5000458;28;20506;-72
2022/09/26 12:54:39;;;;;;;6.87;4.17;;;14.00;99.90;;;;;;4993921;28;20468;-72
2022/09/26 12:57:21;;;;;;;5.33;3.10;;;14.10;99.90;;;;;;4996015;28;20544;-73
2022/09/26 12:59:50;;;;;;;5.93;3.40;;;14.20;99.90;;;;;;4996475;28;20420;-73
2022/09/26 13:02:44;;;;;;;4.03;2.50;;;14.40;99.90;;;;;;4996459;28;20471;-72
2022/09/26 13:05:36;;;;;;;3.67;2.33;;;14.70;99.90;;;;;;4995361;28;20480;-73
2022/09/26 13:08:29;;;;;;;6.23;2.70;;;15.00;99.90;;;;;;4994992;28;20993;-73
2022/09/26 13:11:00;;;;;;;4.83;2.93;;;15.20;99.90;;;;;;4992646;28;20555;-73
2022/09/26 13:14:18;;;;;;;4.97;2.57;;;15.40;99.90;;;;;;4995243;28;20474;-73
2022/09/26 13:17:08;;;;;;;5.00;3.30;;;15.70;99.90;;;;;;4956433;28;20437;-73
2022/09/26 13:19:51;;;;;;;4.60;2.87;;;15.90;99.90;;;;;;4993403;28;20417;-73
2022/09/26 13:22:35;;;;;;;5.03;3.53;;;16.10;99.90;;;;;;5000127;28;20464;-74
2022/09/26 13:25:09;;;;;;;4.90;2.73;;;16.30;99.90;;;;;;4993654;28;20544;-73